RJOC

Izumo Airport

Airport
ICAO code
RJOC
IATA Code
IZO
Summary
ICAO Region
APAC
ICAO Territory
Location

Izumo, Shimane

Serving
Izumo
Elevation
6 ft
Coordinates
35° 24' 48" N , 132° 53' 21" E
KCC
Metar
Observation
RJOC 030700Z 35007KT 9999 -SHRA FEW015 SCT030 BKN045 08/04 Q1018
Station
Izumo Airport
Date/Time
2023-02-03 07:00:00
Wind direction
350°
Wind speed
07 kts
Lowest cloud amount
few clouds
Temperature
8°C
Dew point
4°C
Humidity
75%
QNH
1018 hPa
Weather condition
light showers rain

Izumo Airport is an airport in Izumo, Shimane Prefecture, Japan

Climatology

Humid Sub-tropical climate (Köppen climate classification Cwa) - Hot humid summers and cooler winter. Significant precipitation in all seasons but drier in the winter.

Runways

Designator Length Width Surface Rops
7/25 2000 45 ASP Yes/Yes

Airport map

Aerial View

Airport accidents

SKYbrary Partners:

Safety knowledge contributed by: